Time;durP1;ratioP1;P1;durP2;ratioP2;P2;SDS_P1;SDS_P2;PMS_P1;PMS_P2;Temp;Humidity;BMP_temperature;BMP_pressure;BME280_temperature;BME280_humidity;BME280_pressure;Samples;Min_cycle;Max_cycle;Signal;HPM_P1;HPM_P2
2023/01/21 00:02:04;;;;;;;18.97;11.93;;;-2.10;99.90;;;;;;5034802;28;20206;-42
2023/01/21 00:04:33;;;;;;;20.37;12.93;;;-2.10;99.90;;;;;;5034970;28;20452;-44
2023/01/21 00:06:59;;;;;;;20.03;12.30;;;-2.10;99.90;;;;;;5034533;28;20424;-43
2023/01/21 00:09:24;;;;;;;22.53;12.30;;;-2.10;99.90;;;;;;5034596;28;20417;-42
2023/01/21 00:11:50;;;;;;;17.17;12.07;;;-2.10;99.90;;;;;;5034760;28;20201;-42
2023/01/21 00:14:15;;;;;;;21.83;12.43;;;-2.20;99.90;;;;;;5034492;28;20184;-44
2023/01/21 00:16:41;;;;;;;22.00;12.53;;;-2.10;99.90;;;;;;5034434;28;20283;-44
2023/01/21 00:19:07;;;;;;;24.77;13.80;;;-2.20;99.90;;;;;;5035045;28;20178;-44
2023/01/21 00:21:32;;;;;;;22.23;12.23;;;-2.10;99.90;;;;;;5034653;28;20396;-42
2023/01/21 00:23:58;;;;;;;22.63;12.73;;;-2.20;99.90;;;;;;5034313;28;20182;-45
2023/01/21 00:26:23;;;;;;;22.30;12.70;;;-2.20;99.90;;;;;;5034481;28;20206;-43
2023/01/21 00:28:49;;;;;;;19.20;12.00;;;-2.10;99.90;;;;;;5034534;28;20188;-50
2023/01/21 00:31:15;;;;;;;21.57;12.53;;;-2.20;99.90;;;;;;5016923;28;20641;-48
2023/01/21 00:33:40;;;;;;;26.63;13.10;;;-2.20;99.90;;;;;;5034007;28;20206;-48
2023/01/21 00:36:08;;;;;;;20.97;12.40;;;-2.20;99.90;;;;;;4999959;28;20213;-47
2023/01/21 00:38:34;;;;;;;24.63;14.43;;;-2.20;99.90;;;;;;5034090;28;20563;-47
2023/01/21 00:41:08;;;;;;;23.67;13.30;;;-2.30;99.90;;;;;;5016315;28;20422;-48
2023/01/21 00:43:35;;;;;;;25.20;14.23;;;-2.30;99.90;;;;;;5016436;28;20610;-48
2023/01/21 00:46:00;;;;;;;25.03;13.90;;;-2.30;99.90;;;;;;5033855;28;20416;-47
2023/01/21 00:48:27;;;;;;;26.63;14.87;;;-2.40;99.90;;;;;;5033785;28;20501;-48
2023/01/21 00:50:54;;;;;;;22.10;13.67;;;-2.40;99.90;;;;;;5034091;28;20657;-47
2023/01/21 00:53:21;;;;;;;24.20;12.97;;;-2.40;99.90;;;;;;5016005;28;20440;-47
2023/01/21 00:55:47;;;;;;;22.37;13.10;;;-2.50;99.90;;;;;;5033618;28;20431;-48
2023/01/21 00:58:12;;;;;;;22.80;13.73;;;-2.60;99.90;;;;;;5033569;28;20419;-48
2023/01/21 01:00:38;;;;;;;26.77;13.93;;;-2.70;99.90;;;;;;5015869;28;20182;-49
2023/01/21 01:03:04;;;;;;;20.80;13.03;;;-2.80;99.90;;;;;;5016420;28;20212;-48
2023/01/21 01:05:30;;;;;;;23.53;13.77;;;-2.90;99.90;;;;;;5033672;28;20185;-48
2023/01/21 01:07:55;;;;;;;23.10;14.17;;;-2.90;99.90;;;;;;5033801;28;20185;-47
2023/01/21 01:10:21;;;;;;;23.67;14.13;;;-3.00;99.90;;;;;;5034325;28;20641;-48
2023/01/21 01:12:47;;;;;;;24.67;14.47;;;-3.10;99.90;;;;;;5033404;28;20197;-49
2023/01/21 01:15:12;;;;;;;25.00;15.20;;;-3.10;99.90;;;;;;5015761;28;20185;-48
2023/01/21 01:17:38;;;;;;;26.97;15.77;;;-3.10;99.90;;;;;;5033570;28;20206;-49
2023/01/21 01:20:04;;;;;;;27.23;14.70;;;-3.10;99.90;;;;;;5015916;28;20267;-49
2023/01/21 01:22:29;;;;;;;26.53;14.83;;;-3.10;99.90;;;;;;5033356;28;20248;-50
2023/01/21 01:24:55;;;;;;;24.47;15.20;;;-3.10;99.90;;;;;;5033487;28;20656;-48
2023/01/21 01:27:21;;;;;;;26.77;15.47;;;-3.20;99.90;;;;;;5033620;28;20514;-49
2023/01/21 01:29:47;;;;;;;24.77;14.53;;;-3.20;99.90;;;;;;5033759;28;20518;-48
2023/01/21 01:32:13;;;;;;;26.47;14.57;;;-3.20;99.90;;;;;;5033699;28;20205;-48
2023/01/21 01:34:38;;;;;;;26.27;15.00;;;-3.20;99.90;;;;;;5033515;28;20814;-48
2023/01/21 01:37:04;;;;;;;23.43;14.17;;;-3.20;99.90;;;;;;5033260;28;20220;-48
2023/01/21 01:39:30;;;;;;;24.10;14.83;;;-3.20;99.90;;;;;;5033462;28;20181;-48
2023/01/21 01:41:56;;;;;;;23.23;14.50;;;-3.30;99.90;;;;;;5033195;28;20201;-47
2023/01/21 01:45:01;;;;;;;25.50;14.47;;;-3.30;99.90;;;;;;5033166;28;20506;-47
2023/01/21 01:47:42;;;;;;;25.93;13.83;;;-3.30;99.90;;;;;;5015743;28;20196;-51
2023/01/21 01:50:12;;;;;;;26.03;15.07;;;-3.40;99.90;;;;;;5033450;28;20414;-48
2023/01/21 01:52:40;;;;;;;24.23;14.60;;;-3.50;99.90;;;;;;5033369;28;20434;-49
2023/01/21 01:55:07;;;;;;;28.17;14.90;;;-3.50;99.90;;;;;;5033496;28;20474;-47
2023/01/21 01:57:37;;;;;;;25.47;15.30;;;-3.60;99.90;;;;;;5033654;28;21004;-49
2023/01/21 02:00:07;;;;;;;27.27;14.53;;;-3.60;99.90;;;;;;5033211;28;20541;-48
2023/01/21 02:02:34;;;;;;;25.00;14.97;;;-3.60;99.90;;;;;;5033016;28;20431;-46
2023/01/21 02:05:03;;;;;;;21.50;13.43;;;-3.60;99.90;;;;;;5015376;28;20416;-49
2023/01/21 02:07:38;;;;;;;28.73;15.70;;;-3.70;99.90;;;;;;5032967;28;20416;-50
2023/01/21 02:10:10;;;;;;;28.37;15.17;;;-3.70;99.90;;;;;;5018206;28;20419;-47
2023/01/21 02:12:38;;;;;;;25.23;15.10;;;-3.70;99.90;;;;;;5019182;28;20938;-49
2023/01/21 02:15:05;;;;;;;30.23;14.93;;;-3.80;99.90;;;;;;5037100;28;20868;-48
2023/01/21 02:17:53;;;;;;;24.07;14.50;;;-3.80;99.90;;;;;;5036926;28;20794;-49
2023/01/21 02:20:47;;;;;;;26.57;15.47;;;-3.80;99.90;;;;;;5036697;28;20416;-48
2023/01/21 02:23:33;;;;;;;26.23;15.03;;;-3.80;99.90;;;;;;5036836;28;20962;-47
2023/01/21 02:26:29;;;;;;;26.93;14.60;;;-3.90;99.90;;;;;;5036963;28;20952;-48
2023/01/21 02:29:42;;;;;;;23.07;14.43;;;-3.90;99.90;;;;;;5036836;28;20380;-48
2023/01/21 02:32:19;;;;;;;24.77;14.63;;;-3.90;99.90;;;;;;4990718;28;20435;-48
2023/01/21 02:34:50;;;;;;;25.63;14.87;;;-3.90;99.90;;;;;;5036790;28;20441;-48
2023/01/21 02:37:25;;;;;;;25.07;14.73;;;-3.80;99.90;;;;;;5036276;28;20521;-49
2023/01/21 02:40:06;;;;;;;27.77;15.60;;;-3.80;99.90;;;;;;5036373;28;20415;-48
2023/01/21 02:43:08;;;;;;;28.13;16.43;;;-3.90;99.90;;;;;;5036495;28;20430;-47
2023/01/21 02:45:41;;;;;;;26.50;15.83;;;-3.90;99.90;;;;;;5002952;28;20763;-47
2023/01/21 02:48:13;;;;;;;28.07;15.60;;;-3.80;99.90;;;;;;5036410;28;20419;-49
2023/01/21 02:50:44;;;;;;;28.20;14.67;;;-3.90;99.90;;;;;;5036422;28;20768;-49
2023/01/21 02:53:26;;;;;;;28.77;14.70;;;-3.80;99.90;;;;;;5036144;28;20459;-46
2023/01/21 02:55:52;;;;;;;24.80;15.20;;;-3.90;99.90;;;;;;5036924;28;20420;-48
2023/01/21 02:58:22;;;;;;;26.80;15.80;;;-3.90;99.90;;;;;;5036322;28;20424;-47
2023/01/21 03:01:14;;;;;;;27.87;16.07;;;-4.00;99.90;;;;;;5036298;28;20493;-48
2023/01/21 03:03:58;;;;;;;26.97;15.67;;;-4.00;99.90;;;;;;5034597;28;20447;-48
2023/01/21 03:06:40;;;;;;;27.80;15.17;;;-4.20;99.90;;;;;;5035976;28;20411;-48
2023/01/21 03:09:23;;;;;;;25.37;14.43;;;-4.20;99.90;;;;;;5036233;28;20747;-48
2023/01/21 03:11:59;;;;;;;30.23;16.13;;;-4.20;99.90;;;;;;5035892;28;20943;-47
2023/01/21 03:18:21;;;;;;;27.20;15.53;;;-4.20;99.90;;;;;;5035729;28;20446;-47
2023/01/21 03:20:55;;;;;;;30.90;16.17;;;-4.30;99.90;;;;;;5036038;28;20408;-42
2023/01/21 03:23:31;;;;;;;27.87;16.20;;;-4.30;99.90;;;;;;5036029;28;20519;-42
2023/01/21 03:25:59;;;;;;;27.83;15.10;;;-4.40;99.90;;;;;;5035728;28;20400;-44
2023/01/21 03:28:29;;;;;;;32.33;17.00;;;-4.30;99.90;;;;;;5035781;28;20969;-41
2023/01/21 03:31:06;;;;;;;30.67;16.97;;;-4.30;99.90;;;;;;5035693;28;20400;-41
2023/01/21 03:33:36;;;;;;;28.30;15.93;;;-4.30;99.90;;;;;;5035603;28;20431;-43
2023/01/21 03:36:10;;;;;;;32.43;18.27;;;-4.20;99.90;;;;;;5036541;28;20466;-45
2023/01/21 03:38:43;;;;;;;30.63;17.63;;;-4.10;99.90;;;;;;5020652;28;20503;-44
2023/01/21 03:41:26;;;;;;;35.83;18.57;;;-3.90;99.90;;;;;;5018328;28;20419;-42
2023/01/21 03:43:52;;;;;;;35.57;19.27;;;-3.70;99.90;;;;;;5036552;28;20403;-42
2023/01/21 03:46:31;;;;;;;33.43;18.97;;;-3.70;99.90;;;;;;5036417;28;20416;-46
2023/01/21 03:49:11;;;;;;;33.50;19.17;;;-3.70;99.90;;;;;;5036531;28;20168;-43
2023/01/21 03:51:41;;;;;;;30.97;17.73;;;-3.70;99.90;;;;;;5035843;28;20395;-46
2023/01/21 03:54:07;;;;;;;31.93;17.27;;;-3.70;99.90;;;;;;5035734;28;20415;-46
2023/01/21 03:56:32;;;;;;;34.30;18.23;;;-3.70;99.90;;;;;;5036369;28;20971;-49
2023/01/21 03:58:58;;;;;;;36.27;19.00;;;-3.60;99.90;;;;;;5036640;28;20204;-39
2023/01/21 04:01:23;;;;;;;33.87;18.60;;;-3.60;99.90;;;;;;5036130;28;20173;-43
2023/01/21 04:03:49;;;;;;;30.93;18.63;;;-3.50;99.90;;;;;;5035615;28;20188;-47
2023/01/21 04:06:17;;;;;;;34.23;20.50;;;-3.40;99.90;;;;;;5035053;28;20181;-47
2023/01/21 04:08:43;;;;;;;35.90;20.17;;;-3.40;99.90;;;;;;5034621;28;20181;-48
2023/01/21 04:11:08;;;;;;;34.67;19.23;;;-3.40;99.90;;;;;;5034654;28;20426;-46
2023/01/21 04:13:34;;;;;;;38.37;20.30;;;-3.40;99.90;;;;;;5034742;28;20222;-47
2023/01/21 04:16:00;;;;;;;34.07;18.70;;;-3.30;99.90;;;;;;5016753;28;20258;-46
2023/01/21 04:18:25;;;;;;;37.50;20.80;;;-3.30;99.90;;;;;;5034775;28;20191;-46
2023/01/21 04:20:51;;;;;;;39.70;23.00;;;-3.20;99.90;;;;;;5000336;28;20181;-48
2023/01/21 04:26:52;;;;;;;39.70;20.13;;;-3.10;99.90;;;;;;5034374;28;20186;-47
2023/01/21 04:29:18;;;;;;;36.53;19.07;;;-3.10;99.90;;;;;;5034200;28;20431;-48
2023/01/21 04:31:43;;;;;;;41.80;21.47;;;-3.10;99.90;;;;;;5033895;28;20487;-47
2023/01/21 04:34:09;;;;;;;41.23;20.13;;;-3.00;99.90;;;;;;5035022;28;20454;-48
2023/01/21 04:36:35;;;;;;;36.90;21.30;;;-3.00;99.90;;;;;;5033984;28;20201;-48
2023/01/21 04:39:01;;;;;;;45.23;23.47;;;-3.00;99.90;;;;;;5035068;28;20232;-48
2023/01/21 04:41:26;;;;;;;38.13;21.20;;;-2.90;99.90;;;;;;5034008;28;20169;-49
2023/01/21 04:43:52;;;;;;;38.77;19.20;;;-2.90;99.90;;;;;;5034026;28;20691;-48
2023/01/21 04:46:17;;;;;;;40.70;23.43;;;-2.90;99.90;;;;;;5034163;28;20185;-46
2023/01/21 04:48:43;;;;;;;35.10;20.23;;;-2.90;99.90;;;;;;5032762;28;20191;-47
2023/01/21 04:51:09;;;;;;;33.60;18.93;;;-2.80;99.90;;;;;;5033967;28;20660;-46
2023/01/21 04:53:34;;;;;;;38.73;21.60;;;-2.80;99.90;;;;;;5034037;28;20219;-46
2023/01/21 04:56:00;;;;;;;37.73;20.80;;;-2.80;99.90;;;;;;5034000;28;20698;-47
2023/01/21 04:58:26;;;;;;;39.27;22.33;;;-2.80;99.90;;;;;;5033749;28;20670;-48
2023/01/21 05:00:53;;;;;;;39.03;20.37;;;-2.70;99.90;;;;;;5033832;28;20177;-49
2023/01/21 05:03:19;;;;;;;45.60;23.33;;;-2.70;99.90;;;;;;5033805;28;20927;-48
2023/01/21 05:05:45;;;;;;;40.13;22.20;;;-2.70;99.90;;;;;;5034256;28;20538;-49
2023/01/21 05:08:10;;;;;;;34.67;18.77;;;-2.70;99.90;;;;;;5015937;28;20268;-47
2023/01/21 05:10:36;;;;;;;40.83;22.67;;;-2.70;99.90;;;;;;5033945;28;20185;-48
2023/01/21 05:13:02;;;;;;;45.50;25.57;;;-2.70;99.90;;;;;;5033570;28;20215;-48
2023/01/21 05:15:27;;;;;;;38.07;20.87;;;-2.70;99.90;;;;;;5033951;28;20209;-47
2023/01/21 05:17:53;;;;;;;44.03;22.20;;;-2.60;99.90;;;;;;5033487;28;20232;-48
2023/01/21 05:20:18;;;;;;;36.87;19.57;;;-2.70;99.90;;;;;;5033637;28;20181;-48
2023/01/21 05:22:47;;;;;;;43.03;22.97;;;-2.70;99.90;;;;;;5032084;28;20298;-48
2023/01/21 05:25:14;;;;;;;44.33;22.37;;;-2.70;99.90;;;;;;5033579;28;20193;-49
2023/01/21 05:27:39;;;;;;;36.60;20.20;;;-2.70;99.90;;;;;;5033460;28;20819;-48
2023/01/21 05:30:06;;;;;;;43.10;21.63;;;-2.70;99.90;;;;;;5033399;28;20415;-48
2023/01/21 05:32:31;;;;;;;43.73;22.83;;;-2.70;99.90;;;;;;5033316;28;20201;-48
2023/01/21 05:34:57;;;;;;;36.90;19.70;;;-2.80;99.90;;;;;;5033449;28;20949;-48
2023/01/21 05:37:22;;;;;;;37.07;19.30;;;-2.80;99.90;;;;;;5033238;28;20208;-49
2023/01/21 05:39:48;;;;;;;41.87;22.03;;;-2.80;99.90;;;;;;5015585;28;20177;-48
2023/01/21 05:42:13;;;;;;;37.70;22.03;;;-2.80;99.90;;;;;;5033442;28;20196;-48
2023/01/21 05:44:39;;;;;;;40.07;21.37;;;-2.80;99.90;;;;;;5035623;28;20188;-48
2023/01/21 05:47:06;;;;;;;39.37;21.87;;;-2.80;99.90;;;;;;5037611;28;20181;-47
2023/01/21 05:49:32;;;;;;;39.73;21.30;;;-2.80;99.90;;;;;;5037703;28;20259;-48
2023/01/21 05:51:57;;;;;;;36.07;21.00;;;-2.80;99.90;;;;;;5037214;28;20474;-49
2023/01/21 05:54:23;;;;;;;39.97;22.30;;;-2.80;99.90;;;;;;5019494;28;20181;-47
2023/01/21 05:56:48;;;;;;;40.13;21.53;;;-2.80;99.90;;;;;;5037507;28;20227;-49
2023/01/21 05:59:14;;;;;;;39.17;20.77;;;-2.80;99.90;;;;;;5037193;28;20180;-47
2023/01/21 06:01:39;;;;;;;36.63;20.47;;;-2.80;99.90;;;;;;5037328;28;20264;-47
2023/01/21 06:04:05;;;;;;;36.40;20.83;;;-2.80;99.90;;;;;;5037307;28;20637;-49
2023/01/21 06:06:30;;;;;;;40.33;22.40;;;-2.80;99.90;;;;;;5019228;28;20614;-48
2023/01/21 06:08:56;;;;;;;41.17;22.03;;;-2.90;99.90;;;;;;5036883;28;20213;-48
2023/01/21 06:11:22;;;;;;;36.60;20.60;;;-2.90;99.90;;;;;;5036922;28;20271;-47
2023/01/21 06:13:47;;;;;;;42.83;21.00;;;-2.90;99.90;;;;;;5035612;28;20703;-47
2023/01/21 06:16:13;;;;;;;43.87;20.80;;;-3.00;99.90;;;;;;5038947;28;20664;-48
2023/01/21 06:18:38;;;;;;;36.87;20.47;;;-3.00;99.90;;;;;;5037235;28;20252;-48
2023/01/21 06:21:04;;;;;;;35.77;20.90;;;-3.00;99.90;;;;;;5036697;28;20173;-48
2023/01/21 06:23:30;;;;;;;39.00;20.63;;;-3.00;99.90;;;;;;5036918;28;20533;-48
2023/01/21 06:25:59;;;;;;;36.67;20.53;;;-3.00;99.90;;;;;;5036930;28;20211;-48
2023/01/21 06:31:47;;;;;;;44.77;23.47;;;-3.10;99.90;;;;;;5070330;22;20520;-83
2023/01/21 06:34:31;;;;;;;36.57;21.20;;;-3.10;99.90;;;;;;5039132;28;20457;-84
2023/01/21 06:37:36;;;;;;;37.83;21.87;;;-3.00;99.90;;;;;;5042049;28;20200;-86
2023/01/21 06:40:25;;;;;;;39.47;22.13;;;-3.00;99.90;;;;;;5035935;28;20532;-84
2023/01/21 06:43:00;;;;;;;39.93;21.03;;;-2.90;99.90;;;;;;5036023;28;20477;-84
2023/01/21 06:46:14;;;;;;;38.63;21.77;;;-3.20;99.90;;;;;;5056882;28;20399;-84
2023/01/21 06:49:12;;;;;;;42.93;22.97;;;-2.90;99.90;;;;;;5005792;28;20418;-84
2023/01/21 06:51:56;;;;;;;43.07;23.33;;;-2.80;99.90;;;;;;5016049;28;20440;-83
2023/01/21 06:58:01;;;;;;;37.83;21.07;;;-2.70;99.90;;;;;;5056214;28;20462;-84
2023/01/21 07:11:04;;;;;;;;;;;;;;;;;;;;;
2023/01/21 07:21:05;;;;;;;45.90;22.97;;;-3.80;99.90;;;;;;4955848;29;20459;-83
2023/01/21 07:31:38;;;;;;;36.60;22.00;;;-3.50;99.90;;;;;;4879172;29;20520;-84
2023/01/21 07:41:56;;;;;;;;;;;;;;;;;;;;;
2023/01/21 07:45:05;;;;;;;39.10;21.60;;;-3.30;99.90;;;;;;4796116;29;20433;-84
2023/01/21 07:48:36;;;;;;;;;;;;;;;;;;;;;
2023/01/21 08:06:57;;;;;;;;;;;;;;;;;;;;;
2023/01/21 08:14:11;;;;;;;37.40;20.63;;;-3.10;99.90;;;;;;4842204;29;20480;-84
2023/01/21 08:17:45;;;;;;;39.23;21.83;;;-4.90;99.90;;;;;;4841702;29;20517;-84
2023/01/21 08:20:17;;;;;;;44.20;22.37;;;-3.60;99.90;;;;;;4870019;29;20454;-84
2023/01/21 08:23:27;;;;;;;39.67;21.87;;;-5.30;99.90;;;;;;4930802;28;20422;-84
2023/01/21 08:26:40;;;;;;;;;;;;;;;;;;;;;
2023/01/21 08:29:13;;;;;;;42.53;23.23;;;-2.70;99.90;;;;;;5055044;28;20390;-83
2023/01/21 08:31:41;;;;;;;42.50;24.07;;;-3.30;99.90;;;;;;5020370;28;20479;-83
2023/01/21 08:34:18;;;;;;;39.33;22.90;;;-3.20;99.90;;;;;;5036461;28;20466;-84
2023/01/21 08:37:43;;;;;;;;;;;;;;;;;;;;;
2023/01/21 08:40:36;;;;;;;47.17;24.73;;;-2.80;99.90;;;;;;5039736;28;20430;-84
2023/01/21 08:43:52;;;;;;;42.97;23.43;;;-3.00;99.90;;;;;;5034928;28;20477;-84
2023/01/21 08:46:40;;;;;;;41.90;23.37;;;-2.90;99.90;;;;;;5012924;28;20415;-85
2023/01/21 08:49:06;;;;;;;48.40;25.37;;;-2.90;99.90;;;;;;5036405;28;20433;-84
2023/01/21 08:51:31;;;;;;;43.70;24.10;;;-2.90;99.90;;;;;;5036512;28;20438;-85
2023/01/21 08:53:58;;;;;;;46.50;25.40;;;-0.30;99.90;;;;;;5054137;28;20469;-85
2023/01/21 08:56:24;;;;;;;48.63;24.90;;;-2.10;99.90;;;;;;5036305;28;20619;-85
2023/01/21 08:58:54;;;;;;;53.33;28.43;;;-2.50;99.90;;;;;;5036359;28;20409;-85
2023/01/21 09:01:20;;;;;;;50.87;26.20;;;-1.90;99.90;;;;;;5036448;28;20200;-85
2023/01/21 09:03:46;;;;;;;56.13;30.63;;;-2.60;99.90;;;;;;5036678;28;20433;-84
2023/01/21 09:06:12;;;;;;;54.07;25.90;;;-0.70;99.90;;;;;;5036286;28;20427;-85
2023/01/21 09:08:38;;;;;;;48.73;26.53;;;-2.40;99.90;;;;;;5036808;28;20188;-85
2023/01/21 09:11:05;;;;;;;47.67;25.20;;;-2.50;99.90;;;;;;5054108;28;20218;-85
2023/01/21 09:13:36;;;;;;;50.13;26.60;;;-2.30;99.90;;;;;;5036575;28;20192;-85
2023/01/21 09:16:06;;;;;;;55.50;28.37;;;-2.30;99.90;;;;;;5036483;28;20422;-85
2023/01/21 09:18:31;;;;;;;41.00;21.43;;;-2.10;99.90;;;;;;5053681;28;20445;-84
2023/01/21 09:21:01;;;;;;;52.07;28.53;;;-2.20;99.90;;;;;;5036208;28;20485;-85
2023/01/21 09:23:27;;;;;;;51.43;27.43;;;-2.10;99.90;;;;;;5036533;28;20191;-85
2023/01/21 09:25:54;;;;;;;57.37;30.40;;;-2.00;99.90;;;;;;5036323;28;20410;-85
2023/01/21 09:28:21;;;;;;;50.07;27.00;;;-2.00;99.90;;;;;;5036628;28;20521;-85
2023/01/21 09:30:46;;;;;;;64.07;31.50;;;-1.90;99.90;;;;;;5035994;28;20455;-85
2023/01/21 09:33:14;;;;;;;56.17;29.27;;;-0.70;99.90;;;;;;5036105;28;20445;-85
2023/01/21 09:35:40;;;;;;;55.33;28.30;;;-1.90;99.90;;;;;;5035964;28;20625;-84
2023/01/21 09:38:06;;;;;;;54.17;26.83;;;-1.80;99.90;;;;;;5036263;28;20458;-85
2023/01/21 09:40:32;;;;;;;50.57;27.47;;;-1.80;99.90;;;;;;5036016;28;20777;-85
2023/01/21 09:43:03;;;;;;;59.57;30.03;;;-1.70;99.90;;;;;;5054072;28;20226;-85
2023/01/21 09:45:28;;;;;;;63.10;32.53;;;-1.60;99.90;;;;;;5036407;28;20415;-85
2023/01/21 09:47:56;;;;;;;57.80;30.47;;;-1.50;99.90;;;;;;5035953;28;20430;-85
2023/01/21 09:50:23;;;;;;;62.37;31.37;;;-1.40;99.90;;;;;;5035789;28;20211;-85
2023/01/21 09:52:51;;;;;;;50.70;24.43;;;-1.40;99.90;;;;;;5036383;28;20415;-86
2023/01/21 09:55:43;;;;;;;58.40;31.80;;;-1.30;99.90;;;;;;5053674;28;20426;-85
2023/01/21 09:58:44;;;;;;;67.60;29.93;;;-1.20;99.90;;;;;;5053743;28;20442;-83
2023/01/21 10:01:14;;;;;;;58.53;29.33;;;-1.10;99.90;;;;;;4994981;28;20809;-85
2023/01/21 10:03:43;;;;;;;55.77;29.67;;;-1.00;99.90;;;;;;5035725;28;20892;-85
2023/01/21 10:06:20;;;;;;;69.10;32.53;;;-0.90;99.90;;;;;;5035917;28;20415;-86
2023/01/21 10:09:22;;;;;;;66.63;33.20;;;-0.80;99.90;;;;;;5053750;28;20403;-85
2023/01/21 10:12:20;;;;;;;67.83;33.07;;;-0.80;99.90;;;;;;5036795;28;20762;-85
2023/01/21 10:15:09;;;;;;;63.67;30.83;;;-0.70;99.90;;;;;;4993150;28;20464;-83
2023/01/21 10:17:57;;;;;;;68.00;31.20;;;-0.60;99.90;;;;;;5039347;28;20454;-85
2023/01/21 10:20:33;;;;;;;55.23;27.10;;;-0.50;99.90;;;;;;5036223;28;20525;-85
2023/01/21 10:23:10;;;;;;;59.37;28.33;;;-0.50;99.90;;;;;;5035889;28;20424;-85
2023/01/21 10:25:37;;;;;;;82.80;34.77;;;-0.50;99.90;;;;;;5036304;28;20465;-84
2023/01/21 10:28:16;;;;;;;73.00;32.50;;;-0.40;99.90;;;;;;5035334;28;20430;-85
2023/01/21 10:30:45;;;;;;;67.23;32.37;;;-0.30;99.90;;;;;;5037469;28;20500;-83
2023/01/21 10:33:36;;;;;;;64.30;27.80;;;-0.30;99.90;;;;;;5039041;28;20458;-84
2023/01/21 10:36:22;;;;;;;57.73;28.47;;;-0.20;99.90;;;;;;5035484;28;20918;-85
2023/01/21 10:39:15;;;;;;;63.40;28.47;;;-0.10;99.90;;;;;;5038938;28;20411;-84
2023/01/21 10:42:04;;;;;;;57.57;29.07;;;-0.20;99.90;;;;;;5039022;28;20530;-85
2023/01/21 10:44:55;;;;;;;65.63;29.30;;;0.00;99.90;;;;;;5038910;28;20478;-85
2023/01/21 10:47:39;;;;;;;76.43;28.00;;;0.00;99.90;;;;;;5038806;28;20419;-85
2023/01/21 10:50:40;;;;;;;67.90;28.63;;;0.10;99.90;;;;;;5038727;28;20447;-85
2023/01/21 10:53:17;;;;;;;34.63;16.90;;;0.10;99.90;;;;;;5028647;28;20426;-85
2023/01/21 10:56:06;;;;;;;74.03;31.70;;;0.10;99.90;;;;;;5056898;28;20402;-87
2023/01/21 10:58:39;;;;;;;76.23;31.40;;;0.10;99.90;;;;;;5038571;28;20502;-86
2023/01/21 11:01:14;;;;;;;76.67;33.37;;;0.20;99.90;;;;;;5040075;28;20439;-86
2023/01/21 11:04:03;;;;;;;79.43;31.97;;;0.20;99.90;;;;;;5039148;28;20403;-86
2023/01/21 11:06:31;;;;;;;71.73;31.70;;;0.20;99.90;;;;;;5038717;28;20430;-86
2023/01/21 11:09:01;;;;;;;62.80;29.43;;;0.30;99.90;;;;;;5038268;28;20786;-86
2023/01/21 11:11:32;;;;;;;75.23;30.30;;;0.30;99.90;;;;;;5038397;28;20834;-86
2023/01/21 11:13:58;;;;;;;83.13;35.60;;;0.30;99.90;;;;;;5038647;28;20519;-86
2023/01/21 11:16:47;;;;;;;83.97;34.30;;;0.40;99.90;;;;;;5038057;28;20549;-86
2023/01/21 11:19:29;;;;;;;80.40;33.87;;;0.40;99.90;;;;;;5038371;28;20629;-86
2023/01/21 11:22:00;;;;;;;67.00;30.13;;;0.40;99.90;;;;;;5038343;28;20434;-85
2023/01/21 11:24:26;;;;;;;70.90;31.93;;;0.40;99.90;;;;;;5038868;28;20402;-85
2023/01/21 11:26:58;;;;;;;60.70;27.80;;;0.40;99.90;;;;;;5037946;28;20420;-86
2023/01/21 11:29:25;;;;;;;69.53;30.90;;;0.50;99.90;;;;;;5038619;28;20989;-87
2023/01/21 11:32:01;;;;;;;68.23;31.17;;;0.50;99.90;;;;;;5038372;28;20466;-86
2023/01/21 11:34:27;;;;;;;67.10;30.80;;;0.50;99.90;;;;;;5038504;28;20439;-87
2023/01/21 11:37:04;;;;;;;59.87;31.07;;;0.60;99.90;;;;;;5037856;28;20585;-86
2023/01/21 11:39:37;;;;;;;64.43;30.67;;;0.60;99.90;;;;;;5038552;28;20432;-86
2023/01/21 11:42:13;;;;;;;64.90;30.53;;;0.70;99.90;;;;;;5037894;28;20462;-87
2023/01/21 11:45:03;;;;;;;65.73;30.77;;;0.70;99.90;;;;;;5038850;28;20399;-87
2023/01/21 11:47:38;;;;;;;53.83;26.60;;;0.70;99.90;;;;;;5037777;28;20908;-87
2023/01/21 11:50:21;;;;;;;57.30;27.67;;;0.70;99.90;;;;;;5037731;28;20811;-87
2023/01/21 11:53:07;;;;;;;62.07;28.97;;;0.70;99.90;;;;;;5037716;28;20422;-87
2023/01/21 11:55:39;;;;;;;49.30;26.77;;;0.70;99.90;;;;;;5055710;28;20411;-87
2023/01/21 11:58:14;;;;;;;53.20;25.93;;;0.70;99.90;;;;;;5055305;28;20451;-87
2023/01/21 12:00:45;;;;;;;62.00;27.43;;;0.70;99.90;;;;;;5037637;28;20435;-87
2023/01/21 12:03:15;;;;;;;57.13;28.27;;;0.70;99.90;;;;;;5055890;28;20475;-86
2023/01/21 12:05:44;;;;;;;59.63;28.47;;;0.70;99.90;;;;;;5037790;28;20432;-87
2023/01/21 12:08:21;;;;;;;55.73;27.00;;;0.70;99.90;;;;;;5037362;28;20837;-87
2023/01/21 12:10:47;;;;;;;66.70;28.70;;;0.70;99.90;;;;;;5039393;28;20440;-89
2023/01/21 12:13:21;;;;;;;52.83;28.20;;;0.80;99.90;;;;;;5037390;28;20438;-86
2023/01/21 12:16:09;;;;;;;52.43;26.83;;;0.80;99.90;;;;;;5040712;28;20256;-87
2023/01/21 12:19:02;;;;;;;51.70;26.23;;;0.80;99.90;;;;;;5000405;28;20515;-86
2023/01/21 12:21:38;;;;;;;47.40;27.07;;;0.80;99.90;;;;;;5036818;28;20964;-87
2023/01/21 12:24:15;;;;;;;50.47;25.47;;;0.80;99.90;;;;;;5036961;28;20415;-86
2023/01/21 12:26:57;;;;;;;42.57;21.87;;;0.80;99.90;;;;;;5037003;28;20408;-87
2023/01/21 12:29:50;;;;;;;46.67;23.00;;;0.90;99.90;;;;;;5036588;28;20410;-86
2023/01/21 12:32:32;;;;;;;46.70;24.50;;;0.90;99.90;;;;;;5022626;28;20422;-86
2023/01/21 12:35:30;;;;;;;49.80;26.80;;;0.90;99.90;;;;;;5036748;28;20411;-86
2023/01/21 12:38:19;;;;;;;39.30;20.77;;;0.90;99.90;;;;;;5036685;28;20461;-88
2023/01/21 12:41:03;;;;;;;49.57;23.10;;;1.00;99.90;;;;;;5036734;28;20543;-86
2023/01/21 12:43:35;;;;;;;52.00;25.70;;;1.00;99.90;;;;;;5036439;28;20509;-86
2023/01/21 12:46:26;;;;;;;43.87;23.00;;;1.00;99.90;;;;;;5036524;28;20419;-86
2023/01/21 12:49:19;;;;;;;52.13;25.67;;;1.00;99.90;;;;;;5054414;28;20881;-87
2023/01/21 12:51:50;;;;;;;48.97;23.53;;;1.00;99.90;;;;;;5036644;28;20582;-87
2023/01/21 12:54:38;;;;;;;45.73;24.63;;;1.00;99.90;;;;;;5053976;28;20890;-86
2023/01/21 12:57:20;;;;;;;48.83;24.97;;;1.00;99.90;;;;;;5036880;28;20477;-87
2023/01/21 12:59:49;;;;;;;50.47;24.67;;;1.10;99.90;;;;;;5036179;28;20449;-87
2023/01/21 13:02:33;;;;;;;47.60;23.80;;;1.10;99.90;;;;;;5036073;28;20440;-88
2023/01/21 13:05:26;;;;;;;49.70;24.73;;;1.10;99.90;;;;;;5036252;28;20404;-88
2023/01/21 13:07:58;;;;;;;49.47;26.20;;;1.20;99.90;;;;;;5036104;28;20409;-88
2023/01/21 13:10:46;;;;;;;48.43;23.63;;;1.20;99.90;;;;;;5036176;28;20442;-88
2023/01/21 13:13:27;;;;;;;47.10;24.70;;;1.20;99.90;;;;;;5054104;28;20639;-88
2023/01/21 13:15:57;;;;;;;40.40;22.77;;;1.20;99.90;;;;;;5036132;28;20410;-87
2023/01/21 13:18:38;;;;;;;48.50;23.97;;;1.20;99.90;;;;;;5036174;28;20209;-87
2023/01/21 13:21:15;;;;;;;44.80;23.73;;;1.20;99.90;;;;;;5035817;28;20446;-86
2023/01/21 13:24:08;;;;;;;44.73;21.93;;;1.20;99.90;;;;;;5035955;28;20201;-88
2023/01/21 13:26:50;;;;;;;49.83;24.63;;;1.20;99.90;;;;;;5035752;28;20409;-87
2023/01/21 13:29:30;;;;;;;47.30;23.43;;;1.20;99.90;;;;;;5036514;28;20175;-89
2023/01/21 13:32:14;;;;;;;49.50;24.17;;;1.20;99.90;;;;;;5035956;28;20473;-88
2023/01/21 13:35:17;;;;;;;47.03;23.00;;;1.30;99.90;;;;;;5035986;28;20182;-89
2023/01/21 13:37:53;;;;;;;40.67;20.70;;;1.30;99.90;;;;;;5035741;28;20213;-88
2023/01/21 13:40:30;;;;;;;44.03;23.13;;;1.30;99.90;;;;;;5035787;28;20443;-89
2023/01/21 13:43:09;;;;;;;41.93;21.87;;;1.20;99.90;;;;;;5036240;28;20632;-89
2023/01/21 13:46:02;;;;;;;52.20;23.87;;;1.20;99.90;;;;;;5036330;28;20539;-88
2023/01/21 13:49:05;;;;;;;44.43;21.73;;;1.20;99.90;;;;;;5035892;28;20740;-88
2023/01/21 13:51:58;;;;;;;47.87;24.23;;;1.20;99.90;;;;;;5035998;28;20948;-89
2023/01/21 13:54:54;;;;;;;44.20;22.40;;;1.10;99.90;;;;;;5036004;28;20162;-89
2023/01/21 13:57:44;;;;;;;46.23;22.57;;;1.10;99.90;;;;;;5036084;28;20214;-89
2023/01/21 14:00:39;;;;;;;46.53;23.27;;;1.10;99.90;;;;;;5035581;28;20444;-88
2023/01/21 14:03:32;;;;;;;50.33;24.70;;;1.10;99.90;;;;;;5053826;28;20429;-88
2023/01/21 14:06:37;;;;;;;46.17;22.83;;;1.20;99.90;;;;;;5055432;28;20278;-89
2023/01/21 14:09:21;;;;;;;47.27;22.63;;;1.10;99.90;;;;;;5015644;28;20429;-89
2023/01/21 14:11:58;;;;;;;41.77;21.50;;;1.10;99.90;;;;;;5070433;22;20505;-47
2023/01/21 14:14:52;;;;;;;51.57;24.40;;;1.10;99.90;;;;;;5047148;28;20424;-45
2023/01/21 14:17:50;;;;;;;43.13;22.37;;;1.10;99.90;;;;;;5065201;28;20204;-47
2023/01/21 14:20:33;;;;;;;43.93;23.00;;;1.10;99.90;;;;;;5047716;28;20163;-48
2023/01/21 14:23:15;;;;;;;42.57;22.57;;;1.20;99.90;;;;;;5046874;28;20211;-46
2023/01/21 14:25:58;;;;;;;46.20;21.17;;;1.20;99.90;;;;;;5064493;28;20226;-46